Terminal Aerodrome Forecast
Issued by NWS Bismarck, ND

Home | Current Version | Previous Version | Graphics & Text | Print | Product List | Glossary On
Versions: 1 2 3 4 5 6 7 8 9 10 11 12 13 14 15
000
FTUS43 KBIS 021913 AAA
TAFISN
TAF AMD
KISN 021913Z 0219/0318 33016KT P6SM SCT100
     FM030100 33008KT P6SM SCT100
     FM030600 33014KT P6SM SKC=

USA.gov is the U.S. government's official web portal to all federal, state and local government web resources and services.